sensor_id;sensor_type;location;lat;lon;timestamp;P1;durP1;ratioP1;P2;durP2;ratioP2
7116;SDS011;3600;48.568;7.870;2022-08-19T00:01:29;16.95;;;15.35;;
7116;SDS011;3600;48.568;7.870;2022-08-19T00:04:00;17.58;;;15.93;;
7116;SDS011;3600;48.568;7.870;2022-08-19T00:06:29;17.42;;;15.82;;
7116;SDS011;3600;48.568;7.870;2022-08-19T00:08:57;17.90;;;16.23;;
7116;SDS011;3600;48.568;7.870;2022-08-19T00:11:26;17.38;;;15.82;;
7116;SDS011;3600;48.568;7.870;2022-08-19T00:13:54;16.85;;;15.23;;
7116;SDS011;3600;48.568;7.870;2022-08-19T00:16:23;17.65;;;15.85;;
7116;SDS011;3600;48.568;7.870;2022-08-19T00:18:52;17.60;;;15.98;;
7116;SDS011;3600;48.568;7.870;2022-08-19T00:21:19;18.55;;;16.83;;
7116;SDS011;3600;48.568;7.870;2022-08-19T00:23:46;18.95;;;17.15;;
7116;SDS011;3600;48.568;7.870;2022-08-19T00:26:13;19.63;;;17.80;;
7116;SDS011;3600;48.568;7.870;2022-08-19T00:28:40;17.88;;;16.27;;
7116;SDS011;3600;48.568;7.870;2022-08-19T00:31:07;17.98;;;16.25;;
7116;SDS011;3600;48.568;7.870;2022-08-19T00:33:35;17.23;;;15.52;;
7116;SDS011;3600;48.568;7.870;2022-08-19T00:36:03;17.90;;;16.20;;
7116;SDS011;3600;48.568;7.870;2022-08-19T00:38:33;18.52;;;16.63;;
7116;SDS011;3600;48.568;7.870;2022-08-19T00:41:04;18.30;;;16.55;;
7116;SDS011;3600;48.568;7.870;2022-08-19T00:43:32;17.70;;;16.00;;
7116;SDS011;3600;48.568;7.870;2022-08-19T00:46:00;17.15;;;15.63;;
7116;SDS011;3600;48.568;7.870;2022-08-19T00:48:31;18.02;;;16.23;;
7116;SDS011;3600;48.568;7.870;2022-08-19T00:50:59;15.48;;;14.07;;
7116;SDS011;3600;48.568;7.870;2022-08-19T00:53:29;16.77;;;15.27;;
7116;SDS011;3600;48.568;7.870;2022-08-19T00:55:58;15.88;;;14.48;;
7116;SDS011;3600;48.568;7.870;2022-08-19T00:58:29;16.92;;;15.32;;
7116;SDS011;3600;48.568;7.870;2022-08-19T01:00:58;16.85;;;15.07;;
7116;SDS011;3600;48.568;7.870;2022-08-19T01:03:27;15.55;;;14.00;;
7116;SDS011;3600;48.568;7.870;2022-08-19T01:06:17;16.17;;;14.70;;
7116;SDS011;3600;48.568;7.870;2022-08-19T01:08:46;16.85;;;15.27;;
7116;SDS011;3600;48.568;7.870;2022-08-19T01:11:15;17.23;;;15.63;;
7116;SDS011;3600;48.568;7.870;2022-08-19T01:13:42;16.45;;;14.82;;
7116;SDS011;3600;48.568;7.870;2022-08-19T01:16:15;15.35;;;13.95;;
7116;SDS011;3600;48.568;7.870;2022-08-19T01:18:45;16.00;;;14.52;;
7116;SDS011;3600;48.568;7.870;2022-08-19T01:21:16;16.88;;;15.27;;
7116;SDS011;3600;48.568;7.870;2022-08-19T01:23:58;15.70;;;14.27;;
7116;SDS011;3600;48.568;7.870;2022-08-19T01:26:26;15.38;;;13.88;;
7116;SDS011;3600;48.568;7.870;2022-08-19T01:28:57;15.05;;;13.55;;
7116;SDS011;3600;48.568;7.870;2022-08-19T01:31:27;15.45;;;13.93;;
7116;SDS011;3600;48.568;7.870;2022-08-19T01:33:58;16.33;;;14.73;;
7116;SDS011;3600;48.568;7.870;2022-08-19T01:36:28;16.05;;;14.45;;
7116;SDS011;3600;48.568;7.870;2022-08-19T01:39:09;14.90;;;13.52;;
7116;SDS011;3600;48.568;7.870;2022-08-19T01:41:38;16.02;;;14.63;;
7116;SDS011;3600;48.568;7.870;2022-08-19T01:44:05;16.38;;;14.90;;
7116;SDS011;3600;48.568;7.870;2022-08-19T01:46:44;17.23;;;15.50;;
7116;SDS011;3600;48.568;7.870;2022-08-19T01:49:14;16.38;;;14.88;;
7116;SDS011;3600;48.568;7.870;2022-08-19T01:51:42;15.18;;;13.68;;
7116;SDS011;3600;48.568;7.870;2022-08-19T01:54:10;15.95;;;14.43;;
7116;SDS011;3600;48.568;7.870;2022-08-19T01:56:49;15.73;;;14.30;;
7116;SDS011;3600;48.568;7.870;2022-08-19T01:59:17;15.75;;;14.30;;
7116;SDS011;3600;48.568;7.870;2022-08-19T02:01:46;15.55;;;14.13;;
7116;SDS011;3600;48.568;7.870;2022-08-19T02:04:13;16.38;;;14.77;;
7116;SDS011;3600;48.568;7.870;2022-08-19T02:06:40;16.48;;;14.85;;
7116;SDS011;3600;48.568;7.870;2022-08-19T02:09:07;16.17;;;14.65;;
7116;SDS011;3600;48.568;7.870;2022-08-19T02:11:35;16.60;;;14.98;;
7116;SDS011;3600;48.568;7.870;2022-08-19T02:14:04;16.73;;;15.00;;
7116;SDS011;3600;48.568;7.870;2022-08-19T02:16:33;15.80;;;14.40;;
7116;SDS011;3600;48.568;7.870;2022-08-19T02:19:00;17.10;;;15.52;;
7116;SDS011;3600;48.568;7.870;2022-08-19T02:21:27;15.55;;;14.15;;
7116;SDS011;3600;48.568;7.870;2022-08-19T02:23:55;17.80;;;16.15;;
7116;SDS011;3600;48.568;7.870;2022-08-19T02:26:22;17.05;;;15.40;;
7116;SDS011;3600;48.568;7.870;2022-08-19T02:28:49;17.08;;;15.40;;
7116;SDS011;3600;48.568;7.870;2022-08-19T02:31:17;17.58;;;15.98;;
7116;SDS011;3600;48.568;7.870;2022-08-19T02:33:46;17.83;;;16.08;;
7116;SDS011;3600;48.568;7.870;2022-08-19T02:36:14;15.50;;;14.00;;
7116;SDS011;3600;48.568;7.870;2022-08-19T02:38:46;15.90;;;14.27;;
7116;SDS011;3600;48.568;7.870;2022-08-19T02:41:21;16.27;;;14.80;;
7116;SDS011;3600;48.568;7.870;2022-08-19T02:43:52;16.45;;;14.90;;
7116;SDS011;3600;48.568;7.870;2022-08-19T02:46:44;15.98;;;14.38;;
7116;SDS011;3600;48.568;7.870;2022-08-19T02:49:13;17.00;;;15.40;;
7116;SDS011;3600;48.568;7.870;2022-08-19T02:51:43;16.50;;;14.80;;
7116;SDS011;3600;48.568;7.870;2022-08-19T02:54:12;15.93;;;14.43;;
7116;SDS011;3600;48.568;7.870;2022-08-19T02:56:40;19.05;;;17.15;;
7116;SDS011;3600;48.568;7.870;2022-08-19T02:59:09;18.40;;;16.67;;
7116;SDS011;3600;48.568;7.870;2022-08-19T03:01:37;17.27;;;15.60;;
7116;SDS011;3600;48.568;7.870;2022-08-19T03:04:07;17.02;;;15.40;;
7116;SDS011;3600;48.568;7.870;2022-08-19T03:06:37;16.08;;;14.45;;
7116;SDS011;3600;48.568;7.870;2022-08-19T03:09:05;16.50;;;15.00;;
7116;SDS011;3600;48.568;7.870;2022-08-19T03:11:32;17.98;;;16.27;;
7116;SDS011;3600;48.568;7.870;2022-08-19T03:14:00;17.02;;;15.35;;
7116;SDS011;3600;48.568;7.870;2022-08-19T03:16:30;16.55;;;14.95;;
7116;SDS011;3600;48.568;7.870;2022-08-19T03:18:59;17.35;;;15.75;;
7116;SDS011;3600;48.568;7.870;2022-08-19T03:21:27;18.10;;;16.40;;
7116;SDS011;3600;48.568;7.870;2022-08-19T03:23:58;18.10;;;16.40;;
7116;SDS011;3600;48.568;7.870;2022-08-19T03:26:26;16.35;;;14.70;;
7116;SDS011;3600;48.568;7.870;2022-08-19T03:28:54;16.23;;;14.73;;
7116;SDS011;3600;48.568;7.870;2022-08-19T03:31:24;17.02;;;15.07;;
7116;SDS011;3600;48.568;7.870;2022-08-19T03:34:17;16.83;;;15.07;;
7116;SDS011;3600;48.568;7.870;2022-08-19T03:36:53;16.60;;;14.75;;
7116;SDS011;3600;48.568;7.870;2022-08-19T03:39:21;16.48;;;14.98;;
7116;SDS011;3600;48.568;7.870;2022-08-19T03:41:49;16.50;;;14.90;;
7116;SDS011;3600;48.568;7.870;2022-08-19T03:44:37;17.30;;;15.35;;
7116;SDS011;3600;48.568;7.870;2022-08-19T03:47:04;17.63;;;15.75;;
7116;SDS011;3600;48.568;7.870;2022-08-19T03:49:31;15.45;;;13.88;;
7116;SDS011;3600;48.568;7.870;2022-08-19T03:52:02;16.27;;;14.77;;
7116;SDS011;3600;48.568;7.870;2022-08-19T03:54:33;16.27;;;14.77;;
7116;SDS011;3600;48.568;7.870;2022-08-19T03:57:01;16.88;;;15.23;;
7116;SDS011;3600;48.568;7.870;2022-08-19T03:59:30;17.13;;;15.65;;
7116;SDS011;3600;48.568;7.870;2022-08-19T04:01:59;17.13;;;15.55;;
7116;SDS011;3600;48.568;7.870;2022-08-19T04:04:28;17.42;;;15.63;;
7116;SDS011;3600;48.568;7.870;2022-08-19T04:06:57;18.70;;;16.90;;
7116;SDS011;3600;48.568;7.870;2022-08-19T04:09:24;18.02;;;16.25;;
7116;SDS011;3600;48.568;7.870;2022-08-19T04:11:52;18.05;;;16.25;;
7116;SDS011;3600;48.568;7.870;2022-08-19T04:14:22;17.40;;;15.88;;
7116;SDS011;3600;48.568;7.870;2022-08-19T04:16:51;17.42;;;15.63;;
7116;SDS011;3600;48.568;7.870;2022-08-19T04:19:19;17.65;;;15.95;;
7116;SDS011;3600;48.568;7.870;2022-08-19T04:21:47;17.17;;;15.57;;
7116;SDS011;3600;48.568;7.870;2022-08-19T04:24:16;17.77;;;16.08;;
7116;SDS011;3600;48.568;7.870;2022-08-19T04:26:43;18.88;;;16.90;;
7116;SDS011;3600;48.568;7.870;2022-08-19T04:29:16;18.92;;;16.95;;
7116;SDS011;3600;48.568;7.870;2022-08-19T04:31:48;18.55;;;16.85;;
7116;SDS011;3600;48.568;7.870;2022-08-19T04:34:16;18.58;;;16.77;;
7116;SDS011;3600;48.568;7.870;2022-08-19T04:36:48;18.23;;;16.33;;
7116;SDS011;3600;48.568;7.870;2022-08-19T04:39:18;18.17;;;16.48;;
7116;SDS011;3600;48.568;7.870;2022-08-19T04:41:47;18.00;;;16.10;;
7116;SDS011;3600;48.568;7.870;2022-08-19T04:44:33;19.02;;;17.23;;
7116;SDS011;3600;48.568;7.870;2022-08-19T04:47:05;17.85;;;16.13;;
7116;SDS011;3600;48.568;7.870;2022-08-19T04:49:36;18.58;;;16.70;;
7116;SDS011;3600;48.568;7.870;2022-08-19T04:52:03;17.23;;;15.63;;
7116;SDS011;3600;48.568;7.870;2022-08-19T04:54:30;17.85;;;16.20;;
7116;SDS011;3600;48.568;7.870;2022-08-19T04:57:04;18.80;;;16.80;;
7116;SDS011;3600;48.568;7.870;2022-08-19T04:59:37;18.23;;;16.58;;
7116;SDS011;3600;48.568;7.870;2022-08-19T05:02:06;18.23;;;16.40;;
7116;SDS011;3600;48.568;7.870;2022-08-19T05:04:34;18.40;;;16.52;;
7116;SDS011;3600;48.568;7.870;2022-08-19T05:07:05;17.88;;;16.17;;
7116;SDS011;3600;48.568;7.870;2022-08-19T05:09:33;19.23;;;17.33;;
7116;SDS011;3600;48.568;7.870;2022-08-19T05:12:20;19.77;;;17.90;;
7116;SDS011;3600;48.568;7.870;2022-08-19T05:14:53;19.27;;;17.35;;
7116;SDS011;3600;48.568;7.870;2022-08-19T05:17:23;19.40;;;17.30;;
7116;SDS011;3600;48.568;7.870;2022-08-19T05:19:54;19.13;;;17.33;;
7116;SDS011;3600;48.568;7.870;2022-08-19T05:22:40;19.50;;;17.67;;
7116;SDS011;3600;48.568;7.870;2022-08-19T05:25:11;18.75;;;16.95;;
7116;SDS011;3600;48.568;7.870;2022-08-19T05:27:40;17.92;;;16.23;;
7116;SDS011;3600;48.568;7.870;2022-08-19T05:30:08;19.45;;;17.05;;
7116;SDS011;3600;48.568;7.870;2022-08-19T05:32:36;17.40;;;15.75;;
7116;SDS011;3600;48.568;7.870;2022-08-19T05:35:04;18.75;;;17.05;;
7116;SDS011;3600;48.568;7.870;2022-08-19T05:37:31;19.98;;;18.02;;
7116;SDS011;3600;48.568;7.870;2022-08-19T05:39:58;18.40;;;16.60;;
7116;SDS011;3600;48.568;7.870;2022-08-19T05:42:25;17.63;;;15.88;;
7116;SDS011;3600;48.568;7.870;2022-08-19T05:44:52;18.83;;;17.05;;
7116;SDS011;3600;48.568;7.870;2022-08-19T05:47:20;18.25;;;16.45;;
7116;SDS011;3600;48.568;7.870;2022-08-19T05:49:47;18.23;;;16.60;;
7116;SDS011;3600;48.568;7.870;2022-08-19T05:52:16;19.13;;;17.23;;
7116;SDS011;3600;48.568;7.870;2022-08-19T05:54:44;18.85;;;16.80;;
7116;SDS011;3600;48.568;7.870;2022-08-19T05:57:17;19.48;;;17.48;;
7116;SDS011;3600;48.568;7.870;2022-08-19T05:59:44;19.00;;;17.15;;
7116;SDS011;3600;48.568;7.870;2022-08-19T06:02:23;19.70;;;17.65;;
7116;SDS011;3600;48.568;7.870;2022-08-19T06:04:49;19.73;;;17.67;;
7116;SDS011;3600;48.568;7.870;2022-08-19T06:07:16;20.88;;;18.13;;
7116;SDS011;3600;48.568;7.870;2022-08-19T06:09:43;21.58;;;19.27;;
7116;SDS011;3600;48.568;7.870;2022-08-19T06:12:27;21.20;;;19.00;;
7116;SDS011;3600;48.568;7.870;2022-08-19T06:15:02;23.02;;;20.63;;
7116;SDS011;3600;48.568;7.870;2022-08-19T06:17:34;22.83;;;20.35;;
7116;SDS011;3600;48.568;7.870;2022-08-19T06:20:05;23.60;;;21.35;;
7116;SDS011;3600;48.568;7.870;2022-08-19T06:22:39;24.60;;;22.17;;
7116;SDS011;3600;48.568;7.870;2022-08-19T06:25:07;24.35;;;22.05;;
7116;SDS011;3600;48.568;7.870;2022-08-19T06:27:35;22.58;;;20.23;;
7116;SDS011;3600;48.568;7.870;2022-08-19T06:30:13;24.05;;;21.58;;
7116;SDS011;3600;48.568;7.870;2022-08-19T06:32:40;23.02;;;20.83;;
7116;SDS011;3600;48.568;7.870;2022-08-19T06:35:08;24.77;;;22.48;;
7116;SDS011;3600;48.568;7.870;2022-08-19T06:37:36;24.90;;;22.40;;
7116;SDS011;3600;48.568;7.870;2022-08-19T06:40:08;22.90;;;20.70;;
7116;SDS011;3600;48.568;7.870;2022-08-19T06:42:37;23.48;;;21.10;;
7116;SDS011;3600;48.568;7.870;2022-08-19T06:45:09;23.45;;;21.25;;
7116;SDS011;3600;48.568;7.870;2022-08-19T06:47:37;24.75;;;22.27;;
7116;SDS011;3600;48.568;7.870;2022-08-19T06:50:03;22.70;;;20.60;;
7116;SDS011;3600;48.568;7.870;2022-08-19T06:52:32;23.30;;;20.95;;
7116;SDS011;3600;48.568;7.870;2022-08-19T06:55:05;23.35;;;21.02;;
7116;SDS011;3600;48.568;7.870;2022-08-19T06:57:32;23.00;;;20.85;;
7116;SDS011;3600;48.568;7.870;2022-08-19T07:00:00;23.52;;;21.17;;
7116;SDS011;3600;48.568;7.870;2022-08-19T07:02:27;22.63;;;20.35;;
7116;SDS011;3600;48.568;7.870;2022-08-19T07:04:54;23.05;;;20.95;;
7116;SDS011;3600;48.568;7.870;2022-08-19T07:07:24;22.88;;;20.50;;
7116;SDS011;3600;48.568;7.870;2022-08-19T07:09:51;22.25;;;20.05;;
7116;SDS011;3600;48.568;7.870;2022-08-19T07:12:27;22.40;;;20.23;;
7116;SDS011;3600;48.568;7.870;2022-08-19T07:14:56;21.70;;;19.50;;
7116;SDS011;3600;48.568;7.870;2022-08-19T07:17:24;21.38;;;19.05;;
7116;SDS011;3600;48.568;7.870;2022-08-19T07:19:51;21.38;;;19.35;;
7116;SDS011;3600;48.568;7.870;2022-08-19T07:22:19;21.88;;;19.67;;
7116;SDS011;3600;48.568;7.870;2022-08-19T07:24:49;22.77;;;20.60;;
7116;SDS011;3600;48.568;7.870;2022-08-19T07:27:17;21.42;;;19.48;;
7116;SDS011;3600;48.568;7.870;2022-08-19T07:29:51;21.58;;;19.33;;
7116;SDS011;3600;48.568;7.870;2022-08-19T07:32:21;20.85;;;18.70;;
7116;SDS011;3600;48.568;7.870;2022-08-19T07:34:48;21.50;;;19.50;;
7116;SDS011;3600;48.568;7.870;2022-08-19T07:37:15;21.48;;;19.50;;
7116;SDS011;3600;48.568;7.870;2022-08-19T07:39:42;21.88;;;19.77;;
7116;SDS011;3600;48.568;7.870;2022-08-19T07:42:09;20.77;;;18.77;;
7116;SDS011;3600;48.568;7.870;2022-08-19T07:44:39;21.73;;;19.60;;
7116;SDS011;3600;48.568;7.870;2022-08-19T07:47:07;22.25;;;20.08;;
7116;SDS011;3600;48.568;7.870;2022-08-19T07:49:53;20.80;;;18.90;;
7116;SDS011;3600;48.568;7.870;2022-08-19T07:52:20;22.60;;;20.40;;
7116;SDS011;3600;48.568;7.870;2022-08-19T07:54:48;21.77;;;18.92;;
7116;SDS011;3600;48.568;7.870;2022-08-19T07:57:15;22.13;;;19.85;;
7116;SDS011;3600;48.568;7.870;2022-08-19T07:59:42;20.70;;;18.75;;
7116;SDS011;3600;48.568;7.870;2022-08-19T08:02:09;19.67;;;17.52;;
7116;SDS011;3600;48.568;7.870;2022-08-19T08:04:36;21.70;;;19.48;;
7116;SDS011;3600;48.568;7.870;2022-08-19T08:07:22;21.02;;;19.10;;
7116;SDS011;3600;48.568;7.870;2022-08-19T08:10:11;21.42;;;19.20;;
7116;SDS011;3600;48.568;7.870;2022-08-19T08:12:46;22.20;;;19.83;;
7116;SDS011;3600;48.568;7.870;2022-08-19T08:15:33;20.85;;;18.85;;
7116;SDS011;3600;48.568;7.870;2022-08-19T08:18:07;19.55;;;17.63;;
7116;SDS011;3600;48.568;7.870;2022-08-19T08:20:34;19.42;;;17.58;;
7116;SDS011;3600;48.568;7.870;2022-08-19T08:23:01;19.10;;;17.27;;
7116;SDS011;3600;48.568;7.870;2022-08-19T08:25:46;19.98;;;17.98;;
7116;SDS011;3600;48.568;7.870;2022-08-19T08:28:15;18.75;;;16.95;;
7116;SDS011;3600;48.568;7.870;2022-08-19T08:30:43;19.33;;;17.63;;
7116;SDS011;3600;48.568;7.870;2022-08-19T08:33:16;18.25;;;16.40;;
7116;SDS011;3600;48.568;7.870;2022-08-19T08:36:10;18.55;;;16.83;;
7116;SDS011;3600;48.568;7.870;2022-08-19T08:38:39;18.63;;;16.92;;
7116;SDS011;3600;48.568;7.870;2022-08-19T08:44:03;17.50;;;15.80;;
7116;SDS011;3600;48.568;7.870;2022-08-19T08:46:35;19.75;;;17.85;;
7116;SDS011;3600;48.568;7.870;2022-08-19T08:51:42;17.50;;;15.90;;
7116;SDS011;3600;48.568;7.870;2022-08-19T08:54:24;17.52;;;15.90;;
7116;SDS011;3600;48.568;7.870;2022-08-19T08:56:56;19.40;;;17.48;;
7116;SDS011;3600;48.568;7.870;2022-08-19T08:59:25;16.58;;;15.07;;
7116;SDS011;3600;48.568;7.870;2022-08-19T09:01:59;17.77;;;16.15;;
7116;SDS011;3600;48.568;7.870;2022-08-19T09:04:26;16.10;;;14.70;;
7116;SDS011;3600;48.568;7.870;2022-08-19T09:10:16;16.10;;;14.60;;
7116;SDS011;3600;48.568;7.870;2022-08-19T09:15:47;16.05;;;14.52;;
7116;SDS011;3600;48.568;7.870;2022-08-19T09:18:17;16.00;;;14.50;;
7116;SDS011;3600;48.568;7.870;2022-08-19T09:20:45;16.60;;;15.10;;
7116;SDS011;3600;48.568;7.870;2022-08-19T09:23:13;17.15;;;15.50;;
7116;SDS011;3600;48.568;7.870;2022-08-19T09:25:40;16.08;;;14.57;;
7116;SDS011;3600;48.568;7.870;2022-08-19T09:28:07;15.38;;;13.88;;
7116;SDS011;3600;48.568;7.870;2022-08-19T09:30:52;15.52;;;14.13;;
7116;SDS011;3600;48.568;7.870;2022-08-19T09:33:19;15.20;;;13.57;;
7116;SDS011;3600;48.568;7.870;2022-08-19T09:35:46;13.43;;;12.13;;
7116;SDS011;3600;48.568;7.870;2022-08-19T09:38:18;14.13;;;12.82;;
7116;SDS011;3600;48.568;7.870;2022-08-19T09:40:46;14.70;;;13.20;;
7116;SDS011;3600;48.568;7.870;2022-08-19T09:43:12;14.43;;;13.02;;
7116;SDS011;3600;48.568;7.870;2022-08-19T09:45:39;14.10;;;12.73;;
7116;SDS011;3600;48.568;7.870;2022-08-19T09:48:06;13.90;;;12.63;;
7116;SDS011;3600;48.568;7.870;2022-08-19T09:50:36;15.05;;;13.57;;
7116;SDS011;3600;48.568;7.870;2022-08-19T09:53:17;15.77;;;14.32;;
7116;SDS011;3600;48.568;7.870;2022-08-19T09:55:45;14.55;;;13.05;;
7116;SDS011;3600;48.568;7.870;2022-08-19T09:58:11;13.13;;;11.82;;
7116;SDS011;3600;48.568;7.870;2022-08-19T10:00:38;15.18;;;13.60;;
7116;SDS011;3600;48.568;7.870;2022-08-19T10:03:05;14.13;;;12.80;;
7116;SDS011;3600;48.568;7.870;2022-08-19T10:05:33;14.73;;;13.32;;
7116;SDS011;3600;48.568;7.870;2022-08-19T10:08:21;15.90;;;14.35;;
7116;SDS011;3600;48.568;7.870;2022-08-19T10:10:53;14.25;;;12.93;;
7116;SDS011;3600;48.568;7.870;2022-08-19T10:13:25;15.70;;;14.00;;
7116;SDS011;3600;48.568;7.870;2022-08-19T10:15:54;14.70;;;13.18;;
7116;SDS011;3600;48.568;7.870;2022-08-19T10:18:23;14.77;;;13.38;;
7116;SDS011;3600;48.568;7.870;2022-08-19T10:20:51;14.43;;;13.05;;
7116;SDS011;3600;48.568;7.870;2022-08-19T10:23:20;14.57;;;13.15;;
7116;SDS011;3600;48.568;7.870;2022-08-19T10:25:47;13.23;;;12.02;;
7116;SDS011;3600;48.568;7.870;2022-08-19T10:28:15;15.20;;;13.80;;
7116;SDS011;3600;48.568;7.870;2022-08-19T10:30:44;14.23;;;12.88;;
7116;SDS011;3600;48.568;7.870;2022-08-19T10:33:13;14.15;;;12.85;;
7116;SDS011;3600;48.568;7.870;2022-08-19T10:36:02;12.50;;;11.35;;
7116;SDS011;3600;48.568;7.870;2022-08-19T10:38:30;13.07;;;11.82;;
7116;SDS011;3600;48.568;7.870;2022-08-19T10:40:58;11.45;;;10.43;;
7116;SDS011;3600;48.568;7.870;2022-08-19T10:43:36;13.45;;;12.35;;
7116;SDS011;3600;48.568;7.870;2022-08-19T10:46:08;14.27;;;12.77;;
7116;SDS011;3600;48.568;7.870;2022-08-19T10:48:42;15.85;;;12.98;;
7116;SDS011;3600;48.568;7.870;2022-08-19T10:51:09;15.00;;;13.63;;
7116;SDS011;3600;48.568;7.870;2022-08-19T10:53:56;12.15;;;11.05;;
7116;SDS011;3600;48.568;7.870;2022-08-19T10:56:25;13.70;;;12.38;;
7116;SDS011;3600;48.568;7.870;2022-08-19T10:59:12;12.73;;;11.63;;
7116;SDS011;3600;48.568;7.870;2022-08-19T11:01:40;13.70;;;12.60;;
7116;SDS011;3600;48.568;7.870;2022-08-19T11:04:08;14.63;;;13.32;;
7116;SDS011;3600;48.568;7.870;2022-08-19T11:06:43;13.55;;;12.23;;
7116;SDS011;3600;48.568;7.870;2022-08-19T11:09:16;14.40;;;12.93;;
7116;SDS011;3600;48.568;7.870;2022-08-19T11:11:45;15.02;;;13.63;;
7116;SDS011;3600;48.568;7.870;2022-08-19T11:14:15;14.93;;;13.48;;
7116;SDS011;3600;48.568;7.870;2022-08-19T11:16:44;13.65;;;12.35;;
7116;SDS011;3600;48.568;7.870;2022-08-19T11:19:11;14.00;;;12.75;;
7116;SDS011;3600;48.568;7.870;2022-08-19T11:21:41;13.93;;;12.52;;
7116;SDS011;3600;48.568;7.870;2022-08-19T11:24:14;15.40;;;13.90;;
7116;SDS011;3600;48.568;7.870;2022-08-19T11:26:46;13.88;;;12.68;;
7116;SDS011;3600;48.568;7.870;2022-08-19T11:29:19;13.73;;;12.52;;
7116;SDS011;3600;48.568;7.870;2022-08-19T11:31:48;14.27;;;12.90;;
7116;SDS011;3600;48.568;7.870;2022-08-19T11:34:17;11.95;;;10.95;;
7116;SDS011;3600;48.568;7.870;2022-08-19T11:36:46;13.77;;;12.30;;
7116;SDS011;3600;48.568;7.870;2022-08-19T11:39:16;12.32;;;11.30;;
7116;SDS011;3600;48.568;7.870;2022-08-19T11:41:44;13.20;;;12.10;;
7116;SDS011;3600;48.568;7.870;2022-08-19T11:44:11;12.68;;;11.57;;
7116;SDS011;3600;48.568;7.870;2022-08-19T11:46:40;13.10;;;11.90;;
7116;SDS011;3600;48.568;7.870;2022-08-19T11:49:13;13.68;;;12.38;;
7116;SDS011;3600;48.568;7.870;2022-08-19T11:51:41;13.27;;;12.13;;
7116;SDS011;3600;48.568;7.870;2022-08-19T11:54:09;12.68;;;11.68;;
7116;SDS011;3600;48.568;7.870;2022-08-19T11:56:38;12.85;;;11.63;;
7116;SDS011;3600;48.568;7.870;2022-08-19T11:59:05;13.68;;;12.45;;
7116;SDS011;3600;48.568;7.870;2022-08-19T12:01:39;12.10;;;11.07;;
7116;SDS011;3600;48.568;7.870;2022-08-19T12:04:08;12.45;;;11.35;;
7116;SDS011;3600;48.568;7.870;2022-08-19T12:06:36;8.80;;;8.00;;
7116;SDS011;3600;48.568;7.870;2022-08-19T12:09:05;9.60;;;8.73;;
7116;SDS011;3600;48.568;7.870;2022-08-19T12:11:34;10.50;;;9.43;;
7116;SDS011;3600;48.568;7.870;2022-08-19T12:14:03;11.32;;;10.32;;
7116;SDS011;3600;48.568;7.870;2022-08-19T12:16:30;9.63;;;8.65;;
7116;SDS011;3600;48.568;7.870;2022-08-19T12:18:58;8.38;;;7.68;;
7116;SDS011;3600;48.568;7.870;2022-08-19T12:21:31;9.75;;;7.78;;
7116;SDS011;3600;48.568;7.870;2022-08-19T12:24:00;7.90;;;7.28;;
7116;SDS011;3600;48.568;7.870;2022-08-19T12:26:29;8.50;;;7.60;;
7116;SDS011;3600;48.568;7.870;2022-08-19T12:28:57;7.53;;;6.85;;
7116;SDS011;3600;48.568;7.870;2022-08-19T12:31:26;7.32;;;6.60;;
7116;SDS011;3600;48.568;7.870;2022-08-19T12:33:54;6.85;;;6.25;;
7116;SDS011;3600;48.568;7.870;2022-08-19T12:36:22;7.07;;;6.40;;
7116;SDS011;3600;48.568;7.870;2022-08-19T12:38:49;6.30;;;5.80;;
7116;SDS011;3600;48.568;7.870;2022-08-19T12:41:16;6.45;;;5.82;;
7116;SDS011;3600;48.568;7.870;2022-08-19T12:43:44;7.57;;;7.03;;
7116;SDS011;3600;48.568;7.870;2022-08-19T12:46:12;6.85;;;6.35;;
7116;SDS011;3600;48.568;7.870;2022-08-19T12:48:42;7.68;;;6.97;;
7116;SDS011;3600;48.568;7.870;2022-08-19T12:51:13;6.80;;;6.30;;
7116;SDS011;3600;48.568;7.870;2022-08-19T12:53:42;6.93;;;6.30;;
7116;SDS011;3600;48.568;7.870;2022-08-19T12:56:10;6.55;;;6.15;;
7116;SDS011;3600;48.568;7.870;2022-08-19T12:58:41;7.03;;;6.43;;
7116;SDS011;3600;48.568;7.870;2022-08-19T13:01:16;7.25;;;6.65;;
7116;SDS011;3600;48.568;7.870;2022-08-19T13:03:47;7.00;;;6.40;;
7116;SDS011;3600;48.568;7.870;2022-08-19T13:06:16;6.93;;;6.32;;
7116;SDS011;3600;48.568;7.870;2022-08-19T13:08:45;6.63;;;6.13;;
7116;SDS011;3600;48.568;7.870;2022-08-19T13:11:14;6.32;;;5.93;;
7116;SDS011;3600;48.568;7.870;2022-08-19T13:13:44;6.80;;;6.28;;
7116;SDS011;3600;48.568;7.870;2022-08-19T13:16:12;6.82;;;6.32;;
7116;SDS011;3600;48.568;7.870;2022-08-19T13:18:40;6.95;;;6.28;;
7116;SDS011;3600;48.568;7.870;2022-08-19T13:21:09;6.97;;;6.38;;
7116;SDS011;3600;48.568;7.870;2022-08-19T13:23:39;5.90;;;5.40;;
7116;SDS011;3600;48.568;7.870;2022-08-19T13:26:08;6.45;;;5.95;;
7116;SDS011;3600;48.568;7.870;2022-08-19T13:28:35;6.22;;;5.63;;
7116;SDS011;3600;48.568;7.870;2022-08-19T13:31:22;6.70;;;6.20;;
7116;SDS011;3600;48.568;7.870;2022-08-19T13:34:09;6.38;;;5.85;;
7116;SDS011;3600;48.568;7.870;2022-08-19T13:36:37;6.30;;;5.90;;
7116;SDS011;3600;48.568;7.870;2022-08-19T13:39:05;6.72;;;6.05;;
7116;SDS011;3600;48.568;7.870;2022-08-19T13:41:34;6.78;;;6.28;;
7116;SDS011;3600;48.568;7.870;2022-08-19T13:44:02;6.93;;;6.32;;
7116;SDS011;3600;48.568;7.870;2022-08-19T13:46:30;7.18;;;5.68;;
7116;SDS011;3600;48.568;7.870;2022-08-19T13:48:57;6.82;;;6.20;;
7116;SDS011;3600;48.568;7.870;2022-08-19T13:51:24;6.47;;;5.88;;
7116;SDS011;3600;48.568;7.870;2022-08-19T13:53:51;6.07;;;5.57;;
7116;SDS011;3600;48.568;7.870;2022-08-19T13:56:18;6.35;;;5.72;;
7116;SDS011;3600;48.568;7.870;2022-08-19T13:58:51;7.18;;;5.40;;
7116;SDS011;3600;48.568;7.870;2022-08-19T14:01:23;6.30;;;5.70;;
7116;SDS011;3600;48.568;7.870;2022-08-19T14:03:50;6.72;;;5.95;;
7116;SDS011;3600;48.568;7.870;2022-08-19T14:06:17;6.70;;;6.10;;
7116;SDS011;3600;48.568;7.870;2022-08-19T14:08:45;6.07;;;5.68;;
7116;SDS011;3600;48.568;7.870;2022-08-19T14:11:12;6.90;;;5.50;;
7116;SDS011;3600;48.568;7.870;2022-08-19T14:13:39;5.95;;;5.53;;
7116;SDS011;3600;48.568;7.870;2022-08-19T14:16:58;6.13;;;5.63;;
7116;SDS011;3600;48.568;7.870;2022-08-19T14:20:02;6.22;;;5.72;;
7116;SDS011;3600;48.568;7.870;2022-08-19T14:23:12;5.75;;;5.35;;
7116;SDS011;3600;48.568;7.870;2022-08-19T14:26:16;6.18;;;5.60;;
7116;SDS011;3600;48.568;7.870;2022-08-19T14:28:47;5.72;;;5.22;;
7116;SDS011;3600;48.568;7.870;2022-08-19T14:31:19;5.90;;;5.40;;
7116;SDS011;3600;48.568;7.870;2022-08-19T14:33:56;6.13;;;5.63;;
7116;SDS011;3600;48.568;7.870;2022-08-19T14:36:37;6.10;;;5.60;;
7116;SDS011;3600;48.568;7.870;2022-08-19T14:39:07;6.30;;;5.80;;
7116;SDS011;3600;48.568;7.870;2022-08-19T14:41:41;5.65;;;5.15;;
7116;SDS011;3600;48.568;7.870;2022-08-19T14:44:46;6.43;;;5.93;;
7116;SDS011;3600;48.568;7.870;2022-08-19T14:47:30;6.05;;;5.65;;
7116;SDS011;3600;48.568;7.870;2022-08-19T14:50:32;8.85;;;5.63;;
7116;SDS011;3600;48.568;7.870;2022-08-19T14:53:22;5.97;;;5.50;;
7116;SDS011;3600;48.568;7.870;2022-08-19T14:55:57;6.47;;;5.97;;
7116;SDS011;3600;48.568;7.870;2022-08-19T14:58:32;6.57;;;5.90;;
7116;SDS011;3600;48.568;7.870;2022-08-19T15:01:20;8.02;;;5.40;;
7116;SDS011;3600;48.568;7.870;2022-08-19T15:03:59;6.25;;;5.65;;
7116;SDS011;3600;48.568;7.870;2022-08-19T15:06:35;8.35;;;6.35;;
7116;SDS011;3600;48.568;7.870;2022-08-19T15:09:30;6.35;;;5.88;;
7116;SDS011;3600;48.568;7.870;2022-08-19T15:12:14;7.40;;;6.70;;
7116;SDS011;3600;48.568;7.870;2022-08-19T15:14:58;7.80;;;7.10;;
7116;SDS011;3600;48.568;7.870;2022-08-19T15:17:33;8.55;;;7.70;;
7116;SDS011;3600;48.568;7.870;2022-08-19T15:20:26;8.63;;;7.90;;
7116;SDS011;3600;48.568;7.870;2022-08-19T15:26:19;9.30;;;8.40;;
7116;SDS011;3600;48.568;7.870;2022-08-19T15:29:14;9.10;;;8.13;;
7116;SDS011;3600;48.568;7.870;2022-08-19T15:36:39;9.07;;;8.20;;
7116;SDS011;3600;48.568;7.870;2022-08-19T15:39:35;8.48;;;7.78;;